createdAt,value
2018-05-07T00:00:52.259Z,11.69
2018-05-07T00:01:52.282Z,11.62
2018-05-07T00:02:52.354Z,11.64
2018-05-07T00:03:52.257Z,11.64
2018-05-07T00:04:52.253Z,11.64
2018-05-07T00:05:52.353Z,11.64
2018-05-07T00:06:52.246Z,11.64
2018-05-07T00:07:52.263Z,11.64
2018-05-07T00:08:52.242Z,11.52
2018-05-07T00:09:52.239Z,11.52
2018-05-07T00:10:52.239Z,11.58
2018-05-07T00:11:52.231Z,11.49
2018-05-07T00:12:52.231Z,11.47
2018-05-07T00:13:52.229Z,11.46
2018-05-07T00:14:52.231Z,11.40
2018-05-07T00:15:52.226Z,11.44
2018-05-07T00:16:52.220Z,11.46
2018-05-07T00:17:52.215Z,11.47
2018-05-07T00:18:52.216Z,11.40
2018-05-07T00:19:52.217Z,11.46
2018-05-07T00:20:52.215Z,11.47
2018-05-07T00:21:52.206Z,11.36
2018-05-07T00:22:52.202Z,11.37
2018-05-07T00:23:52.202Z,11.39
2018-05-07T00:24:52.197Z,11.36
2018-05-07T00:25:52.194Z,11.37
2018-05-07T00:26:52.190Z,11.32
2018-05-07T00:27:52.188Z,11.25
2018-05-07T00:28:52.186Z,11.19
2018-05-07T00:29:52.220Z,11.21
2018-05-07T00:30:52.179Z,11.28
2018-05-07T00:31:52.178Z,11.28
2018-05-07T00:32:52.174Z,11.27
2018-05-07T00:33:52.169Z,11.33
2018-05-07T00:34:52.174Z,11.25
2018-05-07T00:35:52.168Z,11.25
2018-05-07T00:36:52.161Z,11.15
2018-05-07T00:37:52.157Z,11.29
2018-05-07T00:38:52.152Z,11.28
2018-05-07T00:39:52.150Z,11.17
2018-05-07T00:40:52.147Z,11.11
2018-05-07T00:41:52.148Z,11.11
2018-05-07T00:42:52.140Z,11.11
2018-05-07T00:43:52.137Z,11.15
2018-05-07T00:44:52.136Z,11.15
2018-05-07T00:45:52.132Z,11.15
2018-05-07T00:46:52.127Z,11.15
2018-05-07T00:47:52.130Z,11.15
2018-05-07T00:48:52.118Z,11.14
2018-05-07T00:49:52.121Z,11.10
2018-05-07T00:50:52.116Z,11.15
2018-05-07T00:51:52.115Z,11.10
2018-05-07T00:52:52.114Z,11.10
2018-05-07T00:53:52.107Z,11.10
2018-05-07T00:54:52.104Z,11.09
2018-05-07T00:55:52.101Z,11.11
2018-05-07T00:56:52.098Z,11.10
2018-05-07T00:57:52.103Z,11.11
2018-05-07T00:58:52.091Z,11.14
2018-05-07T00:59:52.087Z,11.03
2018-05-07T01:00:52.084Z,11.04
2018-05-07T01:01:52.082Z,11.03
2018-05-07T01:02:52.080Z,11.00
2018-05-07T01:03:52.075Z,10.92
2018-05-07T01:04:52.070Z,11.00
2018-05-07T01:05:52.074Z,10.94
2018-05-07T01:06:52.065Z,10.96
2018-05-07T01:07:52.061Z,10.85
2018-05-07T01:08:52.059Z,10.94
2018-05-07T01:09:52.056Z,10.96
2018-05-07T01:10:52.056Z,10.91
2018-05-07T01:11:52.049Z,10.88
2018-05-07T01:12:52.126Z,10.81
2018-05-07T01:13:52.046Z,10.81
2018-05-07T01:14:52.039Z,10.81
2018-05-07T01:15:52.039Z,10.78
2018-05-07T01:16:52.033Z,10.70
2018-05-07T01:17:52.033Z,10.71
2018-05-07T01:18:52.028Z,10.68
2018-05-07T01:19:52.022Z,10.51
2018-05-07T01:20:52.019Z,10.59
2018-05-07T01:21:52.016Z,10.52
2018-05-07T01:22:52.013Z,10.56
2018-05-07T01:23:52.013Z,10.48
2018-05-07T01:24:52.008Z,10.56
2018-05-07T01:25:52.003Z,10.52
2018-05-07T01:26:51.999Z,10.61
2018-05-07T01:27:51.995Z,10.52
2018-05-07T01:28:52.034Z,10.45
2018-05-07T01:29:51.995Z,10.48
2018-05-07T01:30:51.985Z,10.42
2018-05-07T01:31:51.981Z,10.51
2018-05-07T01:32:51.987Z,10.44
2018-05-07T01:33:51.978Z,10.42
2018-05-07T01:34:51.973Z,10.40
2018-05-07T01:35:51.972Z,10.30
2018-05-07T01:36:51.967Z,10.29
2018-05-07T01:37:51.968Z,10.26
2018-05-07T01:38:51.966Z,10.30
2018-05-07T01:39:51.958Z,10.29
2018-05-07T01:40:51.952Z,10.29
2018-05-07T01:41:51.948Z,10.32
2018-05-07T01:42:51.949Z,10.33
2018-05-07T01:43:51.942Z,10.42
2018-05-07T01:44:51.942Z,10.38
2018-05-07T01:45:51.937Z,10.42
2018-05-07T01:46:51.931Z,10.42
2018-05-07T01:47:51.928Z,10.42
2018-05-07T01:48:51.927Z,10.42
2018-05-07T01:49:51.923Z,10.36
2018-05-07T01:50:51.919Z,10.40
2018-05-07T01:51:51.916Z,10.41
2018-05-07T01:52:51.912Z,10.42
2018-05-07T01:53:51.907Z,10.34
2018-05-07T01:54:51.899Z,10.40
2018-05-07T01:55:51.904Z,10.36
2018-05-07T01:56:51.898Z,10.27
2018-05-07T01:57:51.895Z,10.27
2018-05-07T01:58:51.891Z,10.22
2018-05-07T01:59:51.888Z,10.27
2018-05-07T02:00:51.880Z,10.22
2018-05-07T02:01:51.884Z,10.22
2018-05-07T02:02:51.877Z,10.18
2018-05-07T02:03:51.872Z,10.18
2018-05-07T02:04:51.870Z,10.18
2018-05-07T02:05:51.864Z,10.23
2018-05-07T02:06:51.864Z,10.09
2018-05-07T02:07:51.858Z,10.08
2018-05-07T02:08:51.855Z,10.23
2018-05-07T02:09:51.854Z,10.23
2018-05-07T02:10:51.846Z,10.17
2018-05-07T02:11:51.847Z,10.11
2018-05-07T02:12:51.843Z,10.20
2018-05-07T02:13:51.842Z,10.12
2018-05-07T02:14:51.834Z,10.08
2018-05-07T02:15:51.828Z,10.18
2018-05-07T02:16:51.833Z,10.07
2018-05-07T02:17:51.824Z,10.09
2018-05-07T02:18:51.820Z,10.14
2018-05-07T02:19:51.818Z,10.15
2018-05-07T02:20:51.810Z,10.09
2018-05-07T02:21:51.809Z,10.08
2018-05-07T02:22:51.807Z,10.11
2018-05-07T02:23:51.801Z,10.11
2018-05-07T02:24:51.798Z,9.94
2018-05-07T02:25:51.795Z,10.01
2018-05-07T02:26:51.789Z,10.02
2018-05-07T02:27:51.789Z,9.91
2018-05-07T02:28:51.784Z,10.02
2018-05-07T02:29:51.779Z,10.02
2018-05-07T02:30:51.778Z,9.94
2018-05-07T02:31:51.777Z,9.89
2018-05-07T02:32:51.773Z,9.97
2018-05-07T02:33:51.765Z,9.93
2018-05-07T02:34:51.762Z,9.91
2018-05-07T02:35:51.757Z,9.93
2018-05-07T02:36:51.754Z,9.90
2018-05-07T02:37:51.750Z,9.87
2018-05-07T02:38:51.756Z,10.01
2018-05-07T02:39:51.743Z,9.86
2018-05-07T02:40:51.741Z,9.84
2018-05-07T02:41:51.737Z,9.87
2018-05-07T02:42:51.731Z,9.87
2018-05-07T02:43:51.730Z,9.86
2018-05-07T02:44:51.726Z,9.86
2018-05-07T02:45:51.721Z,9.86
2018-05-07T02:46:51.719Z,9.86
2018-05-07T02:47:51.711Z,9.83
2018-05-07T02:48:51.710Z,9.83
2018-05-07T02:49:51.706Z,9.78
2018-05-07T02:50:51.703Z,9.78
2018-05-07T02:51:51.700Z,9.74
2018-05-07T02:52:51.696Z,9.68
2018-05-07T02:53:51.695Z,9.71
2018-05-07T02:54:51.686Z,9.69
2018-05-07T02:55:51.685Z,9.66
2018-05-07T02:56:51.681Z,9.69
2018-05-07T02:57:51.676Z,9.69
2018-05-07T02:58:51.678Z,9.74
2018-05-07T02:59:51.663Z,9.68
2018-05-07T03:00:51.664Z,9.69
2018-05-07T03:01:51.661Z,9.69
2018-05-07T03:02:51.660Z,9.65
2018-05-07T03:03:51.659Z,9.65
2018-05-07T03:04:51.652Z,9.60
2018-05-07T03:05:51.653Z,9.72
2018-05-07T03:06:51.641Z,9.61
2018-05-07T03:07:51.637Z,9.60
2018-05-07T03:08:51.633Z,9.64
2018-05-07T03:09:51.628Z,9.57
2018-05-07T03:10:51.623Z,9.58
2018-05-07T03:11:51.622Z,9.60
2018-05-07T03:12:51.621Z,9.58
2018-05-07T03:13:51.614Z,9.56
2018-05-07T03:14:51.608Z,9.61
2018-05-07T03:15:51.616Z,9.51
2018-05-07T03:16:51.606Z,9.66
2018-05-07T03:17:51.599Z,9.54
2018-05-07T03:18:51.595Z,9.58
2018-05-07T03:19:51.589Z,9.50
2018-05-07T03:20:51.585Z,9.53
2018-05-07T03:21:51.581Z,9.54
2018-05-07T03:22:51.579Z,9.60
2018-05-07T03:23:51.573Z,9.60
2018-05-07T03:24:51.572Z,9.46
2018-05-07T03:25:51.567Z,9.43
2018-05-07T03:26:51.561Z,9.48
2018-05-07T03:27:51.559Z,9.57
2018-05-07T03:28:51.555Z,9.46
2018-05-07T03:29:51.549Z,9.48
2018-05-07T03:30:51.549Z,9.42
2018-05-07T03:31:51.540Z,9.48
2018-05-07T03:32:51.536Z,9.50
2018-05-07T03:33:51.536Z,9.47
2018-05-07T03:34:51.529Z,9.42
2018-05-07T03:35:51.523Z,9.56
2018-05-07T03:36:51.524Z,9.58
2018-05-07T03:37:51.516Z,9.51
2018-05-07T03:38:51.533Z,9.53
2018-05-07T03:39:51.508Z,9.48
2018-05-07T03:40:51.502Z,9.58
2018-05-07T03:41:51.502Z,9.54
2018-05-07T03:42:51.494Z,9.56
2018-05-07T03:43:51.494Z,9.60
2018-05-07T03:44:51.486Z,9.58
2018-05-07T03:45:51.484Z,9.54
2018-05-07T03:46:51.479Z,9.64
2018-05-07T03:47:51.470Z,9.61
2018-05-07T03:48:51.472Z,9.64
2018-05-07T03:49:51.468Z,9.58
2018-05-07T03:50:51.461Z,9.65
2018-05-07T03:51:51.461Z,9.65
2018-05-07T03:52:51.452Z,9.69
2018-05-07T03:53:51.450Z,9.65
2018-05-07T03:54:51.441Z,9.65
2018-05-07T03:55:51.441Z,9.71
2018-05-07T03:56:51.434Z,9.66
2018-05-07T03:57:51.435Z,9.71
2018-05-07T03:58:51.428Z,9.74
2018-05-07T03:59:51.426Z,9.68
2018-05-07T04:00:51.421Z,9.79
2018-05-07T04:01:51.418Z,9.72
2018-05-07T04:02:51.417Z,9.83
2018-05-07T04:03:51.409Z,9.84
2018-05-07T04:04:51.405Z,9.89
2018-05-07T04:05:51.402Z,9.86
2018-05-07T04:06:51.394Z,9.94
2018-05-07T04:07:51.392Z,9.97
2018-05-07T04:08:51.393Z,9.97
2018-05-07T04:09:51.384Z,9.90
2018-05-07T04:10:51.378Z,9.96
2018-05-07T04:11:51.375Z,10.02
2018-05-07T04:12:51.372Z,10.07
2018-05-07T04:13:51.374Z,10.09
2018-05-07T04:14:51.364Z,10.20
2018-05-07T04:15:51.359Z,10.22
2018-05-07T04:16:51.357Z,10.17
2018-05-07T04:17:51.352Z,10.26
2018-05-07T04:18:51.352Z,10.20
2018-05-07T04:19:51.345Z,10.30
2018-05-07T04:20:51.340Z,10.34
2018-05-07T04:21:51.341Z,10.33
2018-05-07T04:22:51.332Z,10.45
2018-05-07T04:23:51.327Z,10.42
2018-05-07T04:24:51.324Z,10.47
2018-05-07T04:25:51.319Z,10.47
2018-05-07T04:26:51.317Z,10.55
2018-05-07T04:27:51.313Z,10.56
2018-05-07T04:28:51.311Z,10.64
2018-05-07T04:29:51.307Z,10.66
2018-05-07T04:30:51.299Z,10.84
2018-05-07T04:31:51.298Z,10.99
2018-05-07T04:32:51.295Z,11.33
2018-05-07T04:33:51.294Z,11.85
2018-05-07T04:34:51.286Z,12.52
2018-05-07T04:35:51.285Z,13.38
2018-05-07T04:36:51.279Z,14.14
2018-05-07T04:37:51.277Z,14.84
2018-05-07T04:38:51.272Z,15.51
2018-05-07T04:39:51.273Z,16.14
2018-05-07T04:40:51.265Z,16.75
2018-05-07T04:41:51.269Z,17.19
2018-05-07T04:42:51.258Z,17.55
2018-05-07T04:43:51.256Z,17.95
2018-05-07T04:44:51.258Z,17.97
2018-05-07T04:45:51.249Z,18.30
2018-05-07T04:46:51.245Z,18.63
2018-05-07T04:47:51.244Z,18.90
2018-05-07T04:48:51.247Z,19.14
2018-05-07T04:49:51.241Z,19.23
2018-05-07T04:50:51.239Z,19.37
2018-05-07T04:51:51.237Z,19.63
2018-05-07T04:52:51.232Z,19.81
2018-05-07T04:53:51.229Z,19.98
2018-05-07T04:54:51.227Z,20.24
2018-05-07T04:55:51.224Z,20.50
2018-05-07T04:56:51.221Z,20.59
2018-05-07T04:57:51.222Z,20.61
2018-05-07T04:58:51.219Z,20.87
2018-05-07T04:59:51.218Z,20.79
2018-05-07T05:00:51.215Z,21.13
2018-05-07T05:01:51.214Z,21.58
2018-05-07T05:02:51.215Z,21.65
2018-05-07T05:03:51.219Z,21.61
2018-05-07T05:04:51.212Z,21.71
2018-05-07T05:05:51.210Z,22.00
2018-05-07T05:06:51.206Z,22.07
2018-05-07T05:07:51.203Z,22.03
2018-05-07T05:08:51.206Z,22.18
2018-05-07T05:09:51.212Z,22.21
2018-05-07T05:10:51.207Z,22.31
2018-05-07T05:11:51.204Z,22.55
2018-05-07T05:12:51.205Z,22.61
2018-05-07T05:13:51.203Z,22.90
2018-05-07T05:14:51.208Z,22.95
2018-05-07T05:15:51.202Z,23.20
2018-05-07T05:16:51.203Z,23.55
2018-05-07T05:17:51.208Z,23.10
2018-05-07T05:18:51.202Z,23.22
2018-05-07T05:19:51.204Z,23.32
2018-05-07T05:20:51.203Z,23.58
2018-05-07T05:21:51.204Z,23.61
2018-05-07T05:22:51.202Z,23.69
2018-05-07T05:23:51.261Z,23.94
2018-05-07T05:24:51.269Z,23.98
2018-05-07T05:25:51.270Z,24.22
2018-05-07T05:26:51.280Z,24.31
2018-05-07T05:27:51.207Z,24.47
2018-05-07T05:28:51.205Z,24.78
2018-05-07T05:29:51.205Z,24.91
2018-05-07T05:30:51.213Z,24.95
2018-05-07T05:31:51.206Z,25.35
2018-05-07T05:32:51.211Z,25.38
2018-05-07T05:33:51.211Z,25.51
2018-05-07T05:34:51.217Z,25.70
2018-05-07T05:35:51.217Z,26.17
2018-05-07T05:36:51.214Z,26.25
2018-05-07T05:37:51.210Z,26.40
2018-05-07T05:38:51.215Z,26.39
2018-05-07T05:39:51.218Z,26.70
2018-05-07T05:40:51.217Z,26.52
2018-05-07T05:41:51.221Z,26.33
2018-05-07T05:42:51.220Z,24.83
2018-05-07T05:43:51.272Z,24.98
2018-05-07T05:44:51.227Z,25.51
2018-05-07T05:45:51.228Z,24.30
2018-05-07T05:46:51.228Z,23.28
2018-05-07T05:47:51.231Z,21.88
2018-05-07T05:48:51.234Z,21.92
2018-05-07T05:49:51.316Z,22.35
2018-05-07T05:50:51.238Z,22.45
2018-05-07T05:51:51.242Z,22.79
2018-05-07T05:52:51.242Z,22.37
2018-05-07T05:53:51.246Z,22.75
2018-05-07T05:54:51.247Z,23.23
2018-05-07T05:55:51.249Z,23.54
2018-05-07T05:56:51.251Z,24.37
2018-05-07T05:57:51.254Z,23.04
2018-05-07T05:58:51.266Z,22.57
2018-05-07T05:59:51.256Z,22.47
2018-05-07T06:00:51.265Z,22.95
2018-05-07T06:01:51.266Z,23.47
2018-05-07T06:02:51.266Z,23.61
2018-05-07T06:03:51.338Z,23.09
2018-05-07T06:04:51.274Z,22.92
2018-05-07T06:05:51.274Z,22.27
2018-05-07T06:06:51.277Z,21.92
2018-05-07T06:07:51.280Z,21.46
2018-05-07T06:08:51.281Z,21.49
2018-05-07T06:09:51.286Z,21.75
2018-05-07T06:10:51.284Z,22.20
2018-05-07T06:11:51.289Z,23.50
2018-05-07T06:12:51.295Z,23.87
2018-05-07T06:13:51.300Z,23.80
2018-05-07T06:14:51.428Z,23.63
2018-05-07T06:15:51.303Z,23.95
2018-05-07T06:16:51.307Z,23.65
2018-05-07T06:17:51.308Z,23.76
2018-05-07T06:18:51.312Z,24.21
2018-05-07T06:19:51.316Z,23.60
2018-05-07T06:20:51.317Z,23.27
2018-05-07T06:21:51.320Z,23.65
2018-05-07T06:22:51.324Z,23.48
2018-05-07T06:23:51.328Z,24.22
2018-05-07T06:24:51.330Z,25.03
2018-05-07T06:25:51.334Z,25.09
2018-05-07T06:26:51.335Z,25.14
2018-05-07T06:27:51.342Z,24.95
2018-05-07T06:28:51.342Z,25.73
2018-05-07T06:29:51.349Z,26.09
2018-05-07T06:30:51.354Z,25.95
2018-05-07T06:31:51.375Z,24.43
2018-05-07T06:32:51.362Z,24.16
2018-05-07T06:33:51.385Z,24.28
2018-05-07T06:34:51.368Z,24.60
2018-05-07T06:35:51.372Z,24.58
2018-05-07T06:36:51.377Z,25.46
2018-05-07T06:37:51.382Z,25.82
2018-05-07T06:38:51.392Z,26.67
2018-05-07T06:39:51.391Z,27.57
2018-05-07T06:40:51.396Z,27.13
2018-05-07T06:41:51.405Z,27.62
2018-05-07T06:42:51.405Z,26.70
2018-05-07T06:43:51.411Z,27.27
2018-05-07T06:44:51.415Z,26.72
2018-05-07T06:45:51.446Z,26.20
2018-05-07T06:46:51.429Z,26.07
2018-05-07T06:47:51.435Z,26.44
2018-05-07T06:48:51.439Z,27.43
2018-05-07T06:49:51.502Z,27.55
2018-05-07T06:50:51.449Z,27.65
2018-05-07T06:51:51.455Z,28.22
2018-05-07T06:52:51.465Z,28.64
2018-05-07T06:53:51.469Z,28.12
2018-05-07T06:54:51.479Z,28.40
2018-05-07T06:55:51.478Z,28.22
2018-05-07T06:56:51.486Z,26.28
2018-05-07T06:57:51.492Z,25.17
2018-05-07T06:58:51.496Z,24.68
2018-05-07T06:59:51.504Z,24.88
2018-05-07T07:00:51.510Z,25.28
2018-05-07T07:01:51.516Z,25.94
2018-05-07T07:02:51.633Z,24.90
2018-05-07T07:03:51.532Z,25.62
2018-05-07T07:04:51.539Z,26.33
2018-05-07T07:05:51.548Z,25.82
2018-05-07T07:06:51.549Z,25.47
2018-05-07T07:07:51.565Z,25.02
2018-05-07T07:08:51.568Z,24.90
2018-05-07T07:09:51.571Z,26.10
2018-05-07T07:10:51.583Z,27.14
2018-05-07T07:11:51.587Z,27.94
2018-05-07T07:12:51.594Z,27.50
2018-05-07T07:13:51.597Z,26.51
2018-05-07T07:14:51.603Z,26.45
2018-05-07T07:15:51.610Z,25.88
2018-05-07T07:16:51.620Z,24.93
2018-05-07T07:17:51.625Z,25.35
2018-05-07T07:18:51.632Z,24.84
2018-05-07T07:19:51.643Z,24.83
2018-05-07T07:20:51.648Z,24.83
2018-05-07T07:21:51.750Z,25.82
2018-05-07T07:22:51.662Z,26.62
2018-05-07T07:23:51.667Z,25.43
2018-05-07T07:24:51.674Z,25.55
2018-05-07T07:25:51.683Z,26.28
2018-05-07T07:26:51.685Z,25.95
2018-05-07T07:27:51.732Z,25.94
2018-05-07T07:28:51.704Z,26.09
2018-05-07T07:29:51.712Z,26.76
2018-05-07T07:30:51.720Z,27.37
2018-05-07T07:31:51.736Z,27.72
2018-05-07T07:32:51.739Z,28.64
2018-05-07T07:33:51.822Z,28.83
2018-05-07T07:34:51.752Z,29.45
2018-05-07T07:35:51.800Z,30.20
2018-05-07T07:36:51.767Z,29.09
2018-05-07T07:37:51.782Z,28.67
2018-05-07T07:38:51.785Z,27.28
2018-05-07T07:39:51.986Z,26.99
2018-05-07T07:40:51.801Z,27.50
2018-05-07T07:41:51.809Z,27.43
2018-05-07T07:42:51.818Z,27.50
2018-05-07T07:43:51.825Z,27.40
2018-05-07T07:44:51.832Z,27.09
2018-05-07T07:45:51.843Z,26.29
2018-05-07T07:46:51.846Z,26.13
2018-05-07T07:47:51.859Z,25.46
2018-05-07T07:48:51.863Z,26.17
2018-05-07T07:49:51.873Z,26.12
2018-05-07T07:50:51.880Z,25.46
2018-05-07T07:51:52.020Z,25.75
2018-05-07T07:52:52.025Z,25.46
2018-05-07T07:53:52.068Z,25.72
2018-05-07T07:54:52.036Z,26.15
2018-05-07T07:55:52.041Z,27.07
2018-05-07T07:56:52.047Z,27.22
2018-05-07T07:57:52.051Z,27.44
2018-05-07T07:58:52.059Z,27.85
2018-05-07T07:59:52.110Z,27.84
2018-05-07T08:00:52.071Z,27.28
2018-05-07T08:01:52.093Z,28.18
2018-05-07T08:02:52.088Z,28.04
2018-05-07T08:03:52.086Z,27.34
2018-05-07T08:04:52.093Z,25.87
2018-05-07T08:05:52.153Z,25.27
2018-05-07T08:06:52.151Z,25.38
2018-05-07T08:07:52.159Z,24.93
2018-05-07T08:08:52.204Z,25.57
2018-05-07T08:09:52.171Z,25.87
2018-05-07T08:10:52.171Z,26.18
2018-05-07T08:11:52.177Z,26.58
2018-05-07T08:12:52.228Z,25.72
2018-05-07T08:13:52.228Z,25.58
2018-05-07T08:14:52.237Z,25.50
2018-05-07T08:15:52.239Z,25.91
2018-05-07T08:16:52.246Z,26.20
2018-05-07T08:17:52.345Z,26.17
2018-05-07T08:18:52.259Z,26.89
2018-05-07T08:19:52.264Z,25.64
2018-05-07T08:20:52.268Z,26.15
2018-05-07T08:21:52.274Z,25.83
2018-05-07T08:22:52.275Z,26.63
2018-05-07T08:23:52.279Z,27.39
2018-05-07T08:24:52.361Z,28.11
2018-05-07T08:25:52.369Z,28.17
2018-05-07T08:26:52.353Z,28.12
2018-05-07T08:27:52.292Z,28.62
2018-05-07T08:28:52.296Z,27.79
2018-05-07T08:29:52.299Z,27.28
2018-05-07T08:30:52.305Z,26.29
2018-05-07T08:31:52.339Z,25.40
2018-05-07T08:32:52.310Z,25.83
2018-05-07T08:33:52.317Z,26.33
2018-05-07T08:34:52.323Z,25.79
2018-05-07T08:35:52.321Z,25.72
2018-05-07T08:36:52.322Z,26.28
2018-05-07T08:37:52.327Z,26.67
2018-05-07T08:38:52.334Z,26.15
2018-05-07T08:39:52.341Z,25.50
2018-05-07T08:40:52.347Z,25.82
2018-05-07T08:41:52.361Z,26.62
2018-05-07T08:42:52.368Z,26.99
2018-05-07T08:43:52.380Z,26.65
2018-05-07T08:44:52.392Z,25.67
2018-05-07T08:45:52.398Z,25.62
2018-05-07T08:46:52.408Z,25.79
2018-05-07T08:47:52.414Z,24.87
2018-05-07T08:48:52.422Z,25.40
2018-05-07T08:49:52.435Z,25.23
2018-05-07T08:50:52.459Z,25.36
2018-05-07T08:51:52.456Z,24.55
2018-05-07T08:52:52.474Z,24.45
2018-05-07T08:53:52.472Z,24.15
2018-05-07T08:54:52.480Z,24.39
2018-05-07T08:55:52.487Z,24.58
2018-05-07T08:56:52.496Z,25.00
2018-05-07T08:57:52.503Z,25.58
2018-05-07T08:58:52.514Z,24.78
2018-05-07T08:59:52.516Z,24.39
2018-05-07T09:00:52.529Z,24.90
2018-05-07T09:01:52.535Z,24.61
2018-05-07T09:02:52.541Z,24.30
2018-05-07T09:03:52.551Z,23.54
2018-05-07T09:04:52.555Z,23.09
2018-05-07T09:05:52.562Z,22.58
2018-05-07T09:06:52.566Z,22.68
2018-05-07T09:07:52.576Z,22.46
2018-05-07T09:08:52.583Z,22.22
2018-05-07T09:09:52.587Z,22.25
2018-05-07T09:10:52.586Z,22.17
2018-05-07T09:11:52.596Z,22.09
2018-05-07T09:12:52.597Z,22.06
2018-05-07T09:13:52.611Z,22.21
2018-05-07T09:14:52.609Z,22.25
2018-05-07T09:15:52.613Z,22.24
2018-05-07T09:16:52.622Z,21.94
2018-05-07T09:17:52.625Z,21.98
2018-05-07T09:18:52.628Z,21.98
2018-05-07T09:19:52.630Z,22.10
2018-05-07T09:20:52.638Z,22.31
2018-05-07T09:21:52.642Z,22.37
2018-05-07T09:22:52.647Z,22.42
2018-05-07T09:23:52.649Z,22.49
2018-05-07T09:24:52.687Z,22.40
2018-05-07T09:25:52.656Z,22.25
2018-05-07T09:26:52.660Z,22.43
2018-05-07T09:27:52.689Z,22.64
2018-05-07T09:28:52.669Z,22.68
2018-05-07T09:29:52.671Z,22.68
2018-05-07T09:30:52.678Z,22.67
2018-05-07T09:31:52.692Z,22.51
2018-05-07T09:32:52.681Z,22.18
2018-05-07T09:33:52.686Z,22.17
2018-05-07T09:34:52.689Z,22.03
2018-05-07T09:35:52.693Z,21.96
2018-05-07T09:36:52.696Z,21.99
2018-05-07T09:37:52.698Z,22.05
2018-05-07T09:38:52.701Z,22.24
2018-05-07T09:39:52.709Z,22.37
2018-05-07T09:40:52.767Z,22.39
2018-05-07T09:41:52.713Z,22.49
2018-05-07T09:42:52.728Z,22.25
2018-05-07T09:43:52.718Z,22.31
2018-05-07T09:44:52.722Z,22.47
2018-05-07T09:45:52.726Z,22.49
2018-05-07T09:46:52.731Z,22.49
2018-05-07T09:47:52.733Z,22.17
2018-05-07T09:48:52.831Z,22.15
2018-05-07T09:49:52.739Z,22.36
2018-05-07T09:50:52.740Z,22.51
2018-05-07T09:51:52.744Z,22.61
2018-05-07T09:52:52.748Z,22.75
2018-05-07T09:53:52.757Z,22.91
2018-05-07T09:54:52.756Z,22.72
2018-05-07T09:55:52.756Z,22.65
2018-05-07T09:56:52.852Z,22.76
2018-05-07T09:57:52.764Z,22.90
2018-05-07T09:58:52.829Z,22.97
2018-05-07T09:59:52.770Z,22.88
2018-05-07T10:00:52.781Z,22.92
2018-05-07T10:01:52.780Z,23.10
2018-05-07T10:02:52.778Z,23.00
2018-05-07T10:03:52.781Z,22.65
2018-05-07T10:04:52.805Z,22.52
2018-05-07T10:05:52.794Z,22.47
2018-05-07T10:06:52.789Z,22.51
2018-05-07T10:07:52.794Z,22.75
2018-05-07T10:08:52.798Z,22.68
2018-05-07T10:09:52.801Z,22.60
2018-05-07T10:10:52.803Z,22.42
2018-05-07T10:11:52.805Z,22.52
2018-05-07T10:12:52.809Z,22.64
2018-05-07T10:13:52.812Z,22.83
2018-05-07T10:14:52.820Z,23.02
2018-05-07T10:15:52.822Z,22.94
2018-05-07T10:16:52.822Z,23.09
2018-05-07T10:17:52.829Z,23.05
2018-05-07T10:18:52.825Z,23.12
2018-05-07T10:19:52.830Z,23.15
2018-05-07T10:20:52.834Z,23.09
2018-05-07T10:21:52.880Z,23.10
2018-05-07T10:22:52.839Z,23.20
2018-05-07T10:23:52.844Z,23.25
2018-05-07T10:24:52.843Z,23.17
2018-05-07T10:25:52.849Z,23.20
2018-05-07T10:26:52.853Z,23.36
2018-05-07T10:27:52.951Z,23.38
2018-05-07T10:28:52.861Z,23.22
2018-05-07T10:29:52.895Z,23.22
2018-05-07T10:30:52.864Z,23.02
2018-05-07T10:31:52.869Z,23.19
2018-05-07T10:32:52.871Z,22.94
2018-05-07T10:33:52.879Z,22.67
2018-05-07T10:34:52.886Z,22.83
2018-05-07T10:35:52.890Z,23.00
2018-05-07T10:36:52.893Z,23.05
2018-05-07T10:37:52.889Z,23.13
2018-05-07T10:38:52.888Z,23.05
2018-05-07T10:39:52.900Z,23.04
2018-05-07T10:40:52.900Z,22.94
2018-05-07T10:41:52.967Z,22.85
2018-05-07T10:42:52.909Z,22.91
2018-05-07T10:43:52.911Z,22.92
2018-05-07T10:44:52.917Z,23.10
2018-05-07T10:45:52.926Z,22.90
2018-05-07T10:46:52.924Z,23.04
2018-05-07T10:47:52.929Z,23.00
2018-05-07T10:48:52.935Z,23.25
2018-05-07T10:49:52.937Z,23.43
2018-05-07T10:50:52.940Z,23.25
2018-05-07T10:51:52.963Z,23.20
2018-05-07T10:52:52.993Z,23.22
2018-05-07T10:53:52.967Z,23.20
2018-05-07T10:54:52.971Z,23.13
2018-05-07T10:55:53.037Z,23.10
2018-05-07T10:56:52.981Z,23.15
2018-05-07T10:57:52.984Z,23.13
2018-05-07T10:58:52.986Z,22.97
2018-05-07T10:59:52.989Z,23.01
2018-05-07T11:00:52.995Z,23.20
2018-05-07T11:01:52.999Z,23.53
2018-05-07T11:02:53.001Z,23.73
2018-05-07T11:03:53.007Z,23.79
2018-05-07T11:04:53.006Z,23.72
2018-05-07T11:05:53.011Z,23.51
2018-05-07T11:06:53.017Z,23.72
2018-05-07T11:07:53.023Z,23.66
2018-05-07T11:08:53.022Z,23.75
2018-05-07T11:09:53.025Z,23.50
2018-05-07T11:10:53.030Z,23.65
2018-05-07T11:11:53.032Z,23.51
2018-05-07T11:12:53.055Z,23.48
2018-05-07T11:13:53.044Z,23.58
2018-05-07T11:14:53.040Z,23.80
2018-05-07T11:15:53.048Z,23.78
2018-05-07T11:16:53.088Z,23.95
2018-05-07T11:17:53.056Z,24.20
2018-05-07T11:18:53.060Z,24.28
2018-05-07T11:19:53.125Z,24.02
2018-05-07T11:20:53.070Z,24.22
2018-05-07T11:21:53.058Z,24.13
2018-05-07T11:22:53.061Z,24.16
2018-05-07T11:23:53.064Z,24.25
2018-05-07T11:24:53.066Z,24.12
2018-05-07T11:25:53.074Z,24.15
2018-05-07T11:26:53.080Z,23.73
2018-05-07T11:27:53.089Z,23.72
2018-05-07T11:28:53.093Z,23.79
2018-05-07T11:29:53.103Z,23.55
2018-05-07T11:30:53.104Z,23.69
2018-05-07T11:31:53.110Z,23.97
2018-05-07T11:32:53.116Z,23.94
2018-05-07T11:33:53.122Z,23.85
2018-05-07T11:34:53.131Z,23.91
2018-05-07T11:35:53.129Z,24.08
2018-05-07T11:36:53.136Z,24.13
2018-05-07T11:37:53.142Z,23.88
2018-05-07T11:38:53.201Z,23.93
2018-05-07T11:39:53.171Z,24.08
2018-05-07T11:40:53.157Z,24.16
2018-05-07T11:41:53.164Z,24.28
2018-05-07T11:42:53.177Z,24.34
2018-05-07T11:43:53.175Z,24.12
2018-05-07T11:44:53.203Z,23.84
2018-05-07T11:45:53.208Z,23.94
2018-05-07T11:46:53.209Z,23.88
2018-05-07T11:47:53.214Z,23.90
2018-05-07T11:48:53.218Z,24.08
2018-05-07T11:49:53.224Z,24.08
2018-05-07T11:50:53.231Z,23.91
2018-05-07T11:51:53.238Z,23.94
2018-05-07T11:52:53.243Z,24.13
2018-05-07T11:53:53.251Z,24.32
2018-05-07T11:54:53.256Z,24.39
2018-05-07T11:55:53.269Z,24.46
2018-05-07T11:56:53.269Z,24.40
2018-05-07T11:57:53.268Z,24.39
2018-05-07T11:58:53.272Z,23.98
2018-05-07T11:59:53.276Z,24.15
2018-05-07T12:00:53.280Z,24.18
2018-05-07T12:01:53.284Z,24.39
2018-05-07T12:02:53.287Z,24.52
2018-05-07T12:03:53.291Z,24.46
2018-05-07T12:04:53.296Z,24.30
2018-05-07T12:05:53.297Z,24.31
2018-05-07T12:06:53.301Z,24.25
2018-05-07T12:07:53.309Z,24.12
2018-05-07T12:08:53.310Z,24.06
2018-05-07T12:09:53.313Z,23.91
2018-05-07T12:10:53.315Z,24.15
2018-05-07T12:11:53.319Z,24.02
2018-05-07T12:12:53.324Z,23.79
2018-05-07T12:13:53.439Z,23.83
2018-05-07T12:14:53.336Z,23.94
2018-05-07T12:15:53.373Z,24.20
2018-05-07T12:16:53.342Z,24.28
2018-05-07T12:17:53.348Z,24.58
2018-05-07T12:18:53.351Z,24.60
2018-05-07T12:19:53.356Z,24.27
2018-05-07T12:20:53.359Z,24.47
2018-05-07T12:21:53.347Z,24.40
2018-05-07T12:22:53.352Z,24.34
2018-05-07T12:23:53.362Z,23.95
2018-05-07T12:24:53.358Z,23.69
2018-05-07T12:25:53.363Z,23.78
2018-05-07T12:26:53.369Z,24.08
2018-05-07T12:27:53.375Z,24.20
2018-05-07T12:28:53.381Z,24.46
2018-05-07T12:29:53.380Z,24.65
2018-05-07T12:30:53.399Z,24.58
2018-05-07T12:31:53.460Z,24.58
2018-05-07T12:32:53.410Z,24.42
2018-05-07T12:33:53.413Z,24.31
2018-05-07T12:34:53.420Z,24.22
2018-05-07T12:35:53.418Z,24.27
2018-05-07T12:36:53.434Z,24.31
2018-05-07T12:37:53.435Z,24.30
2018-05-07T12:38:53.446Z,24.43
2018-05-07T12:39:53.447Z,24.45
2018-05-07T12:40:53.471Z,24.64
2018-05-07T12:41:53.461Z,24.42
2018-05-07T12:42:53.467Z,24.31
2018-05-07T12:43:53.443Z,24.24
2018-05-07T12:44:53.488Z,24.25
2018-05-07T12:45:53.458Z,24.15
2018-05-07T12:46:53.561Z,24.30
2018-05-07T12:47:53.471Z,24.18
2018-05-07T12:48:53.476Z,24.28
2018-05-07T12:49:53.497Z,24.18
2018-05-07T12:50:53.505Z,24.31
2018-05-07T12:51:53.494Z,24.46
2018-05-07T12:52:53.503Z,24.77
2018-05-07T12:53:53.460Z,24.64
2018-05-07T12:54:53.473Z,24.91
2018-05-07T12:55:53.472Z,25.05